createdAt,value
2019-05-12T00:00:40.477Z,99.99
2019-05-12T00:01:40.462Z,99.99
2019-05-12T00:02:40.478Z,99.99
2019-05-12T00:03:40.445Z,99.99
2019-05-12T00:04:40.464Z,99.99
2019-05-12T00:05:40.503Z,99.99
2019-05-12T00:06:40.404Z,99.99
2019-05-12T00:07:40.393Z,99.99
2019-05-12T00:08:40.422Z,99.99
2019-05-12T00:09:40.369Z,99.99
2019-05-12T00:10:40.372Z,99.99
2019-05-12T00:11:40.354Z,99.99
2019-05-12T00:12:40.354Z,99.99
2019-05-12T00:13:40.332Z,99.99
2019-05-12T00:14:40.382Z,99.99
2019-05-12T00:15:40.344Z,99.99
2019-05-12T00:16:40.301Z,99.99
2019-05-12T00:17:40.291Z,99.99
2019-05-12T00:18:40.299Z,99.99
2019-05-12T00:19:40.267Z,99.99
2019-05-12T00:20:40.297Z,99.99
2019-05-12T00:21:40.250Z,99.99
2019-05-12T00:22:40.228Z,99.99
2019-05-12T00:23:40.225Z,99.99
2019-05-12T00:24:40.208Z,99.99
2019-05-12T00:25:40.203Z,99.99
2019-05-12T00:26:40.235Z,99.99
2019-05-12T00:27:40.196Z,99.99
2019-05-12T00:28:40.167Z,99.99
2019-05-12T00:29:40.164Z,99.99
2019-05-12T00:30:40.156Z,99.99
2019-05-12T00:31:40.135Z,99.99
2019-05-12T00:32:40.171Z,99.99
2019-05-12T00:33:40.117Z,99.99
2019-05-12T00:34:40.190Z,99.99
2019-05-12T00:35:40.094Z,99.99
2019-05-12T00:36:40.077Z,99.99
2019-05-12T00:37:40.151Z,99.99
2019-05-12T00:38:40.064Z,99.99
2019-05-12T00:39:40.050Z,99.99
2019-05-12T00:40:40.034Z,99.99
2019-05-12T00:41:40.077Z,99.99
2019-05-12T00:42:40.011Z,99.99
2019-05-12T00:43:40.024Z,99.99
2019-05-12T00:44:39.992Z,99.99
2019-05-12T00:45:40.031Z,99.99
2019-05-12T00:46:40.010Z,99.99
2019-05-12T00:47:39.961Z,99.99
2019-05-12T00:48:39.950Z,99.99
2019-05-12T00:49:39.940Z,99.99
2019-05-12T00:50:39.949Z,99.95
2019-05-12T00:51:39.955Z,99.95
2019-05-12T00:52:39.958Z,99.63
2019-05-12T00:53:43.305Z,99.43
2019-05-12T00:54:39.887Z,99.22
2019-05-12T00:55:39.880Z,98.80
2019-05-12T00:56:39.905Z,98.49
2019-05-12T00:57:39.856Z,98.59
2019-05-12T00:58:39.845Z,98.59
2019-05-12T00:59:39.888Z,98.80
2019-05-12T01:00:41.090Z,99.01
2019-05-12T01:01:39.819Z,98.96
2019-05-12T01:02:39.839Z,98.96
2019-05-12T01:03:39.794Z,98.90
2019-05-12T01:04:39.785Z,98.49
2019-05-12T01:05:39.773Z,98.49
2019-05-12T01:06:39.754Z,98.55
2019-05-12T01:07:39.782Z,98.59
2019-05-12T01:08:39.735Z,98.65
2019-05-12T01:09:39.723Z,98.65
2019-05-12T01:10:39.727Z,98.55
2019-05-12T01:11:39.705Z,98.55
2019-05-12T01:12:39.692Z,98.55
2019-05-12T01:13:39.721Z,98.69
2019-05-12T01:14:39.676Z,98.65
2019-05-12T01:15:39.671Z,98.38
2019-05-12T01:16:39.650Z,98.18
2019-05-12T01:17:40.511Z,98.18
2019-05-12T01:18:39.687Z,98.28
2019-05-12T01:19:40.531Z,98.28
2019-05-12T01:20:39.610Z,98.18
2019-05-12T01:21:39.598Z,98.07
2019-05-12T01:22:39.618Z,98.07
2019-05-12T01:23:53.328Z,97.97
2019-05-12T01:24:40.597Z,97.97
2019-05-12T01:25:40.030Z,98.18
2019-05-12T01:26:39.547Z,98.18
2019-05-12T01:27:39.526Z,98.07
2019-05-12T01:28:39.516Z,97.97
2019-05-12T01:29:39.526Z,97.75
2019-05-12T01:30:39.641Z,97.55
2019-05-12T01:31:39.558Z,97.86
2019-05-12T01:32:39.502Z,98.07
2019-05-12T01:33:39.463Z,97.44
2019-05-12T01:34:39.453Z,97.34
2019-05-12T01:35:39.463Z,97.24
2019-05-12T01:36:39.473Z,97.13
2019-05-12T01:37:39.421Z,97.03
2019-05-12T01:38:39.411Z,97.03
2019-05-12T01:39:39.463Z,97.34
2019-05-12T01:40:39.934Z,97.44
2019-05-12T01:41:39.392Z,97.75
2019-05-12T01:42:39.385Z,97.97
2019-05-12T01:43:39.352Z,98.18
2019-05-12T01:44:39.379Z,98.38
2019-05-12T01:45:39.372Z,98.38
2019-05-12T01:46:39.324Z,98.49
2019-05-12T01:47:39.388Z,98.49
2019-05-12T01:48:39.302Z,98.49
2019-05-12T01:49:39.292Z,98.38
2019-05-12T01:50:39.398Z,98.38
2019-05-12T01:51:39.308Z,98.18
2019-05-12T01:52:39.257Z,98.07
2019-05-12T01:53:39.262Z,98.07
2019-05-12T01:54:39.239Z,98.28
2019-05-12T01:55:39.354Z,98.38
2019-05-12T01:56:39.256Z,98.59
2019-05-12T01:57:39.224Z,98.69
2019-05-12T01:58:39.195Z,98.85
2019-05-12T01:59:39.179Z,98.90
2019-05-12T02:00:39.435Z,98.90
2019-05-12T02:01:39.187Z,98.90
2019-05-12T02:02:39.215Z,98.80
2019-05-12T02:03:39.172Z,98.49
2019-05-12T02:04:39.134Z,98.22
2019-05-12T02:05:39.164Z,98.11
2019-05-12T02:06:39.109Z,98.11
2019-05-12T02:07:39.101Z,98.11
2019-05-12T02:08:39.135Z,98.32
2019-05-12T02:09:39.087Z,98.32
2019-05-12T02:10:39.192Z,98.11
2019-05-12T02:11:39.099Z,97.80
2019-05-12T02:12:39.045Z,97.80
2019-05-12T02:13:39.060Z,97.75
2019-05-12T02:14:39.024Z,97.86
2019-05-12T02:15:39.030Z,97.86
2019-05-12T02:16:39.003Z,97.86
2019-05-12T02:17:39.302Z,97.97
2019-05-12T02:18:38.983Z,97.97
2019-05-12T02:19:38.979Z,98.07
2019-05-12T02:20:38.957Z,98.07
2019-05-12T02:21:38.949Z,98.28
2019-05-12T02:22:39.020Z,98.49
2019-05-12T02:23:38.965Z,98.59
2019-05-12T02:24:39.142Z,98.80
2019-05-12T02:25:38.897Z,98.90
2019-05-12T02:26:38.908Z,99.01
2019-05-12T02:27:38.888Z,99.01
2019-05-12T02:28:39.462Z,99.01
2019-05-12T02:29:38.896Z,98.80
2019-05-12T02:30:41.625Z,98.80
2019-05-12T02:31:39.993Z,98.80
2019-05-12T02:32:48.695Z,98.49
2019-05-12T02:33:39.823Z,98.28
2019-05-12T02:34:38.834Z,98.49
2019-05-12T02:35:38.834Z,98.59
2019-05-12T02:36:38.784Z,98.59
2019-05-12T02:37:38.786Z,98.69
2019-05-12T02:38:38.782Z,99.01
2019-05-12T02:39:38.782Z,99.05
2019-05-12T02:40:38.735Z,98.85
2019-05-12T02:41:38.763Z,98.85
2019-05-12T02:42:38.724Z,98.90
2019-05-12T02:43:38.708Z,98.85
2019-05-12T02:44:38.690Z,98.85
2019-05-12T02:45:38.707Z,98.85
2019-05-12T02:46:38.679Z,98.90
2019-05-12T02:47:38.957Z,98.90
2019-05-12T02:48:38.655Z,98.90
2019-05-12T02:49:38.642Z,98.80
2019-05-12T02:50:38.629Z,98.59
2019-05-12T02:51:38.622Z,98.53
2019-05-12T02:52:38.655Z,98.53
2019-05-12T02:53:38.647Z,98.43
2019-05-12T02:54:54.365Z,98.53
2019-05-12T02:55:39.582Z,98.59
2019-05-12T02:56:38.558Z,98.59
2019-05-12T02:57:38.558Z,98.59
2019-05-12T02:58:38.547Z,98.90
2019-05-12T02:59:38.568Z,99.22
2019-05-12T03:00:38.527Z,99.37
2019-05-12T03:01:38.514Z,99.57
2019-05-12T03:02:38.522Z,99.68
2019-05-12T03:03:38.495Z,99.68
2019-05-12T03:04:38.484Z,99.68
2019-05-12T03:05:38.551Z,99.79
2019-05-12T03:06:38.465Z,99.79
2019-05-12T03:07:38.454Z,99.89
2019-05-12T03:08:38.434Z,99.89
2019-05-12T03:09:38.444Z,99.89
2019-05-12T03:10:38.415Z,99.99
2019-05-12T03:11:38.444Z,99.99
2019-05-12T03:12:38.394Z,99.99
2019-05-12T03:13:38.391Z,99.99
2019-05-12T03:14:40.810Z,99.99
2019-05-12T03:15:38.359Z,99.99
2019-05-12T03:16:38.350Z,99.99
2019-05-12T03:17:38.371Z,99.99
2019-05-12T03:18:38.344Z,99.99
2019-05-12T03:19:38.321Z,99.99
2019-05-12T03:20:38.299Z,99.99
2019-05-12T03:21:38.297Z,99.99
2019-05-12T03:22:38.279Z,99.99
2019-05-12T03:23:38.302Z,99.99
2019-05-12T03:24:38.276Z,99.99
2019-05-12T03:25:38.250Z,99.99
2019-05-12T03:26:38.249Z,99.99
2019-05-12T03:27:38.231Z,99.99
2019-05-12T03:28:38.260Z,99.99
2019-05-12T03:29:38.205Z,99.99
2019-05-12T03:30:40.711Z,99.99
2019-05-12T03:31:40.758Z,99.47
2019-05-12T03:32:38.760Z,99.37
2019-05-12T03:33:44.032Z,99.26
2019-05-12T03:34:39.206Z,99.37
2019-05-12T03:35:50.180Z,99.57
2019-05-12T03:36:43.002Z,99.57
2019-05-12T03:37:39.123Z,99.57
2019-05-12T03:38:38.112Z,99.79
2019-05-12T03:39:38.104Z,99.89
2019-05-12T03:40:39.002Z,99.79
2019-05-12T03:41:38.082Z,99.83
2019-05-12T03:42:38.097Z,99.83
2019-05-12T03:43:38.059Z,99.83
2019-05-12T03:44:38.070Z,99.83
2019-05-12T03:45:38.031Z,99.79
2019-05-12T03:46:38.061Z,99.68
2019-05-12T03:47:38.019Z,99.47
2019-05-12T03:48:38.001Z,99.47
2019-05-12T03:49:38.001Z,99.26
2019-05-12T03:50:37.979Z,99.05
2019-05-12T03:51:37.968Z,98.95
2019-05-12T03:52:37.998Z,98.85
2019-05-12T03:53:37.949Z,98.74
2019-05-12T03:54:37.927Z,98.53
2019-05-12T03:55:42.133Z,98.53
2019-05-12T03:56:38.918Z,98.43
2019-05-12T03:57:37.907Z,98.32
2019-05-12T03:58:37.929Z,98.22
2019-05-12T03:59:37.877Z,98.22
2019-05-12T04:00:37.865Z,98.32
2019-05-12T04:01:37.887Z,98.22
2019-05-12T04:02:37.845Z,98.32
2019-05-12T04:03:37.843Z,98.32
2019-05-12T04:04:37.867Z,98.43
2019-05-12T04:05:37.834Z,98.16
2019-05-12T04:06:37.806Z,98.01
2019-05-12T04:07:37.802Z,98.32
2019-05-12T04:08:37.794Z,98.32
2019-05-12T04:09:37.787Z,98.43
2019-05-12T04:10:37.794Z,98.53
2019-05-12T04:11:37.742Z,98.63
2019-05-12T04:12:37.756Z,98.53
2019-05-12T04:13:37.729Z,98.47
2019-05-12T04:14:37.715Z,98.47
2019-05-12T04:15:37.705Z,98.58
2019-05-12T04:16:37.735Z,98.58
2019-05-12T04:17:37.689Z,98.79
2019-05-12T04:18:37.688Z,98.99
2019-05-12T04:19:37.660Z,99.31
2019-05-12T04:20:37.674Z,99.41
2019-05-12T04:21:37.643Z,99.52
2019-05-12T04:22:37.669Z,99.62
2019-05-12T04:23:37.635Z,99.73
2019-05-12T04:24:37.650Z,99.83
2019-05-12T04:25:50.967Z,99.83
2019-05-12T04:26:38.586Z,99.83
2019-05-12T04:27:37.587Z,99.83
2019-05-12T04:28:37.567Z,99.83
2019-05-12T04:29:37.556Z,99.93
2019-05-12T04:30:37.587Z,99.93
2019-05-12T04:31:37.594Z,99.99
2019-05-12T04:32:37.517Z,99.99
2019-05-12T04:33:37.504Z,99.99
2019-05-12T04:34:37.577Z,99.99
2019-05-12T04:35:37.539Z,99.99
2019-05-12T04:36:37.505Z,99.99
2019-05-12T04:37:37.462Z,99.99
2019-05-12T04:38:37.456Z,99.99
2019-05-12T04:39:37.454Z,99.99
2019-05-12T04:40:37.433Z,99.99
2019-05-12T04:41:37.498Z,99.99
2019-05-12T04:42:37.413Z,99.99
2019-05-12T04:43:37.402Z,99.99
2019-05-12T04:44:37.392Z,99.99
2019-05-12T04:45:37.380Z,99.99
2019-05-12T04:46:37.371Z,99.99
2019-05-12T04:47:37.403Z,99.99
2019-05-12T04:48:37.350Z,99.99
2019-05-12T04:49:37.343Z,99.99
2019-05-12T04:50:37.370Z,99.99
2019-05-12T04:51:37.319Z,99.99
2019-05-12T04:52:37.300Z,99.99
2019-05-12T04:53:37.403Z,99.99
2019-05-12T04:54:37.280Z,99.99
2019-05-12T04:55:37.278Z,99.99
2019-05-12T04:56:37.279Z,99.99
2019-05-12T04:57:37.260Z,99.99
2019-05-12T04:58:37.242Z,99.99
2019-05-12T04:59:37.265Z,99.99
2019-05-12T05:00:37.228Z,99.99
2019-05-12T05:01:37.215Z,99.99
2019-05-12T05:02:37.197Z,99.99
2019-05-12T05:03:37.183Z,99.93
2019-05-12T05:04:37.197Z,99.93
2019-05-12T05:05:37.211Z,99.93
2019-05-12T05:06:37.165Z,99.99
2019-05-12T05:07:37.152Z,99.99
2019-05-12T05:08:37.124Z,99.99
2019-05-12T05:09:37.119Z,99.99
2019-05-12T05:10:37.110Z,99.99
2019-05-12T05:11:37.155Z,99.99
2019-05-12T05:12:37.083Z,99.99
2019-05-12T05:13:39.784Z,99.99
2019-05-12T05:14:37.062Z,99.99
2019-05-12T05:15:37.123Z,99.99
2019-05-12T05:16:37.050Z,99.99
2019-05-12T05:17:37.032Z,99.99
2019-05-12T05:18:37.033Z,99.99
2019-05-12T05:19:37.010Z,99.99
2019-05-12T05:20:37.009Z,99.99
2019-05-12T05:21:37.028Z,99.99
2019-05-12T05:22:38.222Z,99.99
2019-05-12T05:23:36.969Z,99.99
2019-05-12T05:24:36.964Z,99.99
2019-05-12T05:25:36.976Z,99.99
2019-05-12T05:26:37.548Z,99.99
2019-05-12T05:27:36.965Z,99.99
2019-05-12T05:28:36.914Z,99.99
2019-05-12T05:29:37.312Z,99.99
2019-05-12T05:30:36.886Z,99.99
2019-05-12T05:31:36.885Z,99.99
2019-05-12T05:32:36.864Z,99.73
2019-05-12T05:33:36.904Z,99.73
2019-05-12T05:34:36.844Z,99.73
2019-05-12T05:35:39.653Z,99.73
2019-05-12T05:36:36.852Z,99.83
2019-05-12T05:37:41.325Z,99.83
2019-05-12T05:38:37.859Z,99.89
2019-05-12T05:39:47.945Z,99.89
2019-05-12T05:40:37.830Z,99.89
2019-05-12T05:41:40.054Z,99.89
2019-05-12T05:42:37.795Z,99.79
2019-05-12T05:43:36.790Z,99.68
2019-05-12T05:44:38.103Z,99.57
2019-05-12T05:45:36.734Z,99.57
2019-05-12T05:46:39.020Z,99.47
2019-05-12T05:47:37.709Z,99.47
2019-05-12T05:48:36.695Z,99.26
2019-05-12T05:49:36.719Z,99.16
2019-05-12T05:50:36.700Z,99.26
2019-05-12T05:51:39.512Z,99.22
2019-05-12T05:52:38.831Z,98.95
2019-05-12T05:53:36.637Z,98.90
2019-05-12T05:54:40.039Z,99.32
2019-05-12T05:55:36.664Z,99.53
2019-05-12T05:56:42.249Z,99.32
2019-05-12T05:57:37.659Z,99.22
2019-05-12T05:58:40.241Z,99.11
2019-05-12T05:59:37.617Z,99.11
2019-05-12T06:00:39.269Z,98.90
2019-05-12T06:01:40.241Z,99.11
2019-05-12T06:02:40.516Z,99.43
2019-05-12T06:03:36.536Z,99.43
2019-05-12T06:04:39.170Z,99.32
2019-05-12T06:05:38.684Z,99.53
2019-05-12T06:06:36.500Z,99.74
2019-05-12T06:07:39.132Z,99.53
2019-05-12T06:08:36.491Z,99.43
2019-05-12T06:09:36.500Z,99.63
2019-05-12T06:10:40.483Z,99.74
2019-05-12T06:11:36.490Z,99.63
2019-05-12T06:12:40.412Z,99.74
2019-05-12T06:13:40.048Z,99.74
2019-05-12T06:14:36.410Z,99.63
2019-05-12T06:15:40.579Z,99.63
2019-05-12T06:16:36.399Z,99.57
2019-05-12T06:17:36.443Z,99.53
2019-05-12T06:18:36.378Z,99.53
2019-05-12T06:19:36.356Z,99.43
2019-05-12T06:20:38.150Z,99.22
2019-05-12T06:21:38.248Z,99.22
2019-05-12T06:22:36.317Z,99.22
2019-05-12T06:23:39.140Z,99.22
2019-05-12T06:24:36.307Z,98.86
2019-05-12T06:25:46.300Z,98.90
2019-05-12T06:26:37.286Z,99.17
2019-05-12T06:27:36.295Z,99.27
2019-05-12T06:28:40.924Z,98.86
2019-05-12T06:29:37.295Z,97.09
2019-05-12T06:30:44.140Z,95.27
2019-05-12T06:31:37.233Z,95.79
2019-05-12T06:32:36.216Z,96.21
2019-05-12T06:33:36.500Z,95.48
2019-05-12T06:34:36.192Z,94.64
2019-05-12T06:35:40.647Z,93.50
2019-05-12T06:36:37.172Z,94.64
2019-05-12T06:37:36.160Z,96.73
2019-05-12T06:38:39.345Z,97.14
2019-05-12T06:39:36.141Z,97.25
2019-05-12T06:40:40.792Z,97.67
2019-05-12T06:41:37.157Z,95.83
2019-05-12T06:42:36.109Z,95.48
2019-05-12T06:43:39.567Z,96.00
2019-05-12T06:44:37.100Z,95.64
2019-05-12T06:45:41.900Z,94.49
2019-05-12T06:46:37.060Z,92.41
2019-05-12T06:47:39.298Z,93.14
2019-05-12T06:48:37.051Z,92.93
2019-05-12T06:49:36.031Z,92.47
2019-05-12T06:50:39.113Z,92.47
2019-05-12T06:51:36.017Z,92.27
2019-05-12T06:52:38.582Z,90.91
2019-05-12T06:53:37.037Z,91.02
2019-05-12T06:54:35.996Z,91.33
2019-05-12T06:55:38.998Z,91.22
2019-05-12T06:56:35.961Z,88.93
2019-05-12T06:57:39.998Z,90.19
2019-05-12T06:58:36.934Z,89.66
2019-05-12T06:59:35.963Z,90.39
2019-05-12T07:00:35.948Z,91.43
2019-05-12T07:01:35.907Z,91.50
2019-05-12T07:02:48.436Z,89.73
2019-05-12T07:03:37.390Z,90.87
2019-05-12T07:04:35.942Z,89.62
2019-05-12T07:05:38.352Z,88.68
2019-05-12T07:06:35.917Z,89.10
2019-05-12T07:07:42.125Z,88.79
2019-05-12T07:08:38.481Z,90.35
2019-05-12T07:09:53.617Z,91.28
2019-05-12T07:10:42.958Z,90.14
2019-05-12T07:11:44.870Z,90.14
2019-05-12T07:12:48.110Z,92.08
2019-05-12T07:13:36.791Z,93.12
2019-05-12T07:14:35.827Z,94.37
2019-05-12T07:15:40.354Z,95.51
2019-05-12T07:16:36.749Z,95.66
2019-05-12T07:17:43.638Z,95.93
2019-05-12T07:18:37.173Z,96.49
2019-05-12T07:19:35.705Z,96.18
2019-05-12T07:20:38.937Z,96.43
2019-05-12T07:21:35.826Z,96.22
2019-05-12T07:22:43.826Z,96.43
2019-05-12T07:23:36.666Z,96.53
2019-05-12T07:24:35.656Z,96.95
2019-05-12T07:25:36.806Z,97.58
2019-05-12T07:26:35.692Z,97.78
2019-05-12T07:27:39.589Z,97.99
2019-05-12T07:28:40.172Z,98.16
2019-05-12T07:29:35.602Z,97.68
2019-05-12T07:30:35.641Z,97.58
2019-05-12T07:31:35.613Z,97.62
2019-05-12T07:32:35.571Z,97.41
2019-05-12T07:33:41.446Z,97.72
2019-05-12T07:34:36.556Z,97.83
2019-05-12T07:35:35.547Z,98.14
2019-05-12T07:36:35.566Z,98.25
2019-05-12T07:37:35.522Z,98.66
2019-05-12T07:38:35.524Z,98.46
2019-05-12T07:39:36.996Z,98.25
2019-05-12T07:40:37.789Z,98.46
2019-05-12T07:41:35.507Z,98.56
2019-05-12T07:42:39.342Z,98.66
2019-05-12T07:43:35.457Z,98.77
2019-05-12T07:44:40.100Z,98.62
2019-05-12T07:45:36.466Z,98.25
2019-05-12T07:46:39.798Z,98.14
2019-05-12T07:47:36.425Z,98.46
2019-05-12T07:48:40.315Z,98.46
2019-05-12T07:49:38.565Z,97.62
2019-05-12T07:50:35.379Z,97.83
2019-05-12T07:51:40.484Z,97.94
2019-05-12T07:52:36.393Z,98.62
2019-05-12T07:53:35.374Z,98.87
2019-05-12T07:54:39.339Z,98.97
2019-05-12T07:55:39.789Z,98.77
2019-05-12T07:56:36.332Z,98.97
2019-05-12T07:57:50.779Z,98.46
2019-05-12T07:58:41.028Z,98.46
2019-05-12T07:59:40.930Z,98.25
2019-05-12T08:00:35.272Z,97.88
2019-05-12T08:01:44.747Z,98.04
2019-05-12T08:02:36.240Z,98.77
2019-05-12T08:03:35.246Z,98.46
2019-05-12T08:04:39.819Z,98.56
2019-05-12T08:05:36.209Z,98.35
2019-05-12T08:06:41.836Z,98.04
2019-05-12T08:07:36.190Z,97.68
2019-05-12T08:08:35.179Z,97.31
2019-05-12T08:09:36.497Z,97.78
2019-05-12T08:10:35.160Z,97.78
2019-05-12T08:11:38.664Z,97.89
2019-05-12T08:12:35.176Z,97.52
2019-05-12T08:13:37.848Z,97.31
2019-05-12T08:14:36.114Z,97.94
2019-05-12T08:15:35.136Z,98.46
2019-05-12T08:16:36.952Z,98.04
2019-05-12T08:17:35.116Z,97.94
2019-05-12T08:18:37.081Z,97.83
2019-05-12T08:19:36.054Z,98.14
2019-05-12T08:20:35.045Z,98.62
2019-05-12T08:21:43.738Z,98.31
2019-05-12T08:22:36.065Z,98.10
2019-05-12T08:23:37.752Z,97.68
2019-05-12T08:24:42.867Z,97.78
2019-05-12T08:25:35.997Z,97.99
2019-05-12T08:26:35.023Z,98.05
2019-05-12T08:27:39.218Z,97.16
2019-05-12T08:28:40.406Z,97.27
2019-05-12T08:29:34.953Z,97.06
2019-05-12T08:30:34.982Z,97.43
2019-05-12T08:31:40.338Z,96.70
2019-05-12T08:32:35.950Z,97.33
2019-05-12T08:33:34.925Z,97.80
2019-05-12T08:34:34.890Z,97.28
2019-05-12T08:35:38.036Z,96.97
2019-05-12T08:36:34.920Z,97.65
2019-05-12T08:37:34.871Z,96.14
2019-05-12T08:38:34.865Z,95.51
2019-05-12T08:39:34.859Z,96.34
2019-05-12T08:40:39.907Z,97.65
2019-05-12T08:41:35.859Z,97.34
2019-05-12T08:42:34.817Z,97.44
2019-05-12T08:43:34.798Z,97.13
2019-05-12T08:44:40.448Z,96.61
2019-05-12T08:45:37.481Z,95.57
2019-05-12T08:46:34.779Z,94.80
2019-05-12T08:47:38.786Z,89.85
2019-05-12T08:48:34.747Z,90.83
2019-05-12T08:49:49.855Z,92.97
2019-05-12T08:50:36.239Z,94.74
2019-05-12T08:51:34.724Z,93.07
2019-05-12T08:52:37.218Z,92.35
2019-05-12T08:53:35.743Z,94.64
2019-05-12T08:54:34.673Z,94.18
2019-05-12T08:55:35.872Z,93.14
2019-05-12T08:56:34.671Z,91.99
2019-05-12T08:57:40.914Z,89.92
2019-05-12T08:58:47.177Z,89.85
2019-05-12T08:59:35.659Z,93.18
2019-05-12T09:00:39.658Z,94.28
2019-05-12T09:01:35.612Z,88.60
2019-05-12T09:02:34.615Z,87.77
2019-05-12T09:03:34.636Z,91.10
2019-05-12T09:04:34.573Z,90.69
2019-05-12T09:05:38.283Z,90.89
2019-05-12T09:06:34.565Z,88.46
2019-05-12T09:07:35.800Z,91.41
2019-05-12T09:08:44.021Z,92.10
2019-05-12T09:09:35.563Z,92.30
2019-05-12T09:10:34.586Z,90.16
2019-05-12T09:11:34.495Z,91.41
2019-05-12T09:12:34.486Z,89.75
2019-05-12T09:13:34.477Z,90.16
2019-05-12T09:14:41.118Z,91.20
2019-05-12T09:15:35.446Z,91.10
2019-05-12T09:16:34.447Z,90.47
2019-05-12T09:17:37.388Z,90.23
2019-05-12T09:18:39.234Z,87.84
2019-05-12T09:19:34.413Z,86.83
2019-05-12T09:20:39.424Z,88.19
2019-05-12T09:21:37.171Z,88.09
2019-05-12T09:22:34.433Z,88.09
2019-05-12T09:23:40.934Z,86.90
2019-05-12T09:24:35.352Z,86.49
2019-05-12T09:25:39.043Z,85.75
2019-05-12T09:26:35.340Z,83.82
2019-05-12T09:27:34.321Z,83.89
2019-05-12T09:28:46.341Z,81.74
2019-05-12T09:29:35.311Z,84.75
2019-05-12T09:30:34.289Z,86.17
2019-05-12T09:31:34.381Z,86.17
2019-05-12T09:32:34.291Z,87.01
2019-05-12T09:33:34.828Z,86.86
2019-05-12T09:34:34.250Z,86.44
2019-05-12T09:35:39.067Z,85.30
2019-05-12T09:36:35.268Z,83.43
2019-05-12T09:37:39.047Z,85.44
2019-05-12T09:38:35.251Z,85.96
2019-05-12T09:39:42.595Z,86.55
2019-05-12T09:40:35.846Z,86.13
2019-05-12T09:41:42.745Z,86.13
2019-05-12T09:42:35.207Z,85.10
2019-05-12T09:43:34.449Z,84.27
2019-05-12T09:44:34.247Z,87.65
2019-05-12T09:45:34.127Z,84.68
2019-05-12T09:46:37.495Z,83.84
2019-05-12T09:47:34.399Z,83.12
2019-05-12T09:48:34.135Z,82.53
2019-05-12T09:49:39.216Z,84.27
2019-05-12T09:50:35.074Z,82.91
2019-05-12T09:51:41.498Z,83.74
2019-05-12T09:52:35.055Z,85.41
2019-05-12T09:53:34.258Z,84.72
2019-05-12T09:54:40.649Z,82.95
2019-05-12T09:55:35.033Z,82.01
2019-05-12T09:56:34.317Z,82.74
2019-05-12T09:57:40.846Z,84.72
2019-05-12T09:58:34.982Z,85.10
2019-05-12T09:59:33.982Z,84.27
2019-05-12T10:00:35.761Z,83.99
2019-05-12T10:01:35.352Z,82.95
2019-05-12T10:02:33.950Z,83.78
2019-05-12T10:03:39.052Z,84.61
2019-05-12T10:04:34.921Z,82.43
2019-05-12T10:05:37.556Z,80.46
2019-05-12T10:06:34.979Z,85.93
2019-05-12T10:07:34.036Z,84.43
2019-05-12T10:08:35.847Z,80.35
2019-05-12T10:09:33.885Z,76.40
2019-05-12T10:10:40.112Z,79.72
2019-05-12T10:11:34.839Z,78.96
2019-05-12T10:12:36.617Z,79.24
2019-05-12T10:13:34.842Z,79.61
2019-05-12T10:14:33.825Z,80.04
2019-05-12T10:15:33.867Z,79.65
2019-05-12T10:16:33.843Z,77.89
2019-05-12T10:17:34.107Z,79.51
2019-05-12T10:18:33.794Z,78.78
2019-05-12T10:19:34.086Z,81.38
2019-05-12T10:20:39.479Z,78.16
2019-05-12T10:21:36.059Z,73.49
2019-05-12T10:22:37.768Z,73.18
2019-05-12T10:23:34.731Z,72.74
2019-05-12T10:24:41.527Z,75.15
2019-05-12T10:25:35.508Z,73.74
2019-05-12T10:26:34.277Z,73.39
2019-05-12T10:27:34.546Z,72.25
2019-05-12T10:28:33.680Z,70.90
2019-05-12T10:29:33.652Z,72.45
2019-05-12T10:30:34.321Z,73.88
2019-05-12T10:31:35.793Z,72.11
2019-05-12T10:32:34.670Z,71.25
2019-05-12T10:33:33.874Z,68.69
2019-05-12T10:34:35.977Z,70.42
2019-05-12T10:35:35.254Z,68.34
2019-05-12T10:36:33.793Z,68.44
2019-05-12T10:37:33.569Z,70.62
2019-05-12T10:38:34.358Z,71.77
2019-05-12T10:39:33.629Z,73.01
2019-05-12T10:40:33.968Z,71.49
2019-05-12T10:41:34.247Z,73.08
2019-05-12T10:42:33.725Z,74.19
2019-05-12T10:43:34.221Z,73.36
2019-05-12T10:44:39.177Z,73.46
2019-05-12T10:45:34.479Z,74.29
2019-05-12T10:46:33.465Z,73.25
2019-05-12T10:47:34.340Z,74.46
2019-05-12T10:48:33.858Z,75.19
2019-05-12T10:49:33.795Z,75.40
2019-05-12T10:50:34.113Z,65.99
2019-05-12T10:51:34.341Z,67.93
2019-05-12T10:52:35.100Z,71.14
2019-05-12T10:53:34.450Z,70.73
2019-05-12T10:54:34.279Z,71.32
2019-05-12T10:55:33.772Z,71.84
2019-05-12T10:56:34.787Z,77.23
2019-05-12T10:57:33.471Z,76.71
2019-05-12T10:58:33.670Z,74.22
2019-05-12T10:59:38.550Z,74.88
2019-05-12T11:00:34.352Z,72.88
2019-05-12T11:01:33.310Z,77.12
2019-05-12T11:02:33.676Z,74.15
2019-05-12T11:03:33.733Z,71.97
2019-05-12T11:04:38.954Z,75.15
2019-05-12T11:05:34.417Z,80.82
2019-05-12T11:06:34.051Z,74.74
2019-05-12T11:07:34.067Z,69.97
2019-05-12T11:08:33.367Z,72.25
2019-05-12T11:09:34.575Z,77.02
2019-05-12T11:10:33.208Z,80.58
2019-05-12T11:11:42.337Z,82.86
2019-05-12T11:12:34.218Z,80.58
2019-05-12T11:13:33.819Z,78.30
2019-05-12T11:14:34.189Z,79.55
2019-05-12T11:15:34.339Z,84.00
2019-05-12T11:16:35.012Z,83.22
2019-05-12T11:17:33.554Z,85.08
2019-05-12T11:18:34.030Z,86.43
2019-05-12T11:19:33.744Z,86.22
2019-05-12T11:20:34.306Z,84.94
2019-05-12T11:21:33.648Z,85.52
2019-05-12T11:22:33.372Z,82.72
2019-05-12T11:23:34.490Z,85.11
2019-05-12T11:24:33.733Z,86.35
2019-05-12T11:25:33.951Z,85.56
2019-05-12T11:26:33.072Z,86.39
2019-05-12T11:27:34.533Z,85.64
2019-05-12T11:28:33.705Z,86.78
2019-05-12T11:29:45.550Z,83.94
2019-05-12T11:30:34.693Z,85.71
2019-05-12T11:31:33.481Z,84.56
2019-05-12T11:32:36.395Z,86.64
2019-05-12T11:33:34.115Z,85.64
2019-05-12T11:34:33.555Z,85.85
2019-05-12T11:35:32.927Z,86.05
2019-05-12T11:36:34.460Z,86.68
2019-05-12T11:37:33.799Z,84.22
2019-05-12T11:38:33.636Z,83.60
2019-05-12T11:39:36.673Z,85.78
2019-05-12T11:40:34.659Z,86.26
2019-05-12T11:41:33.331Z,86.68
2019-05-12T11:42:33.635Z,85.43
2019-05-12T11:43:33.724Z,86.99
2019-05-12T11:44:33.704Z,85.95
2019-05-12T11:45:33.557Z,87.51
2019-05-12T11:46:36.186Z,85.78
2019-05-12T11:47:34.650Z,86.78
2019-05-12T11:48:33.842Z,83.25
2019-05-12T11:49:33.358Z,84.91
2019-05-12T11:50:32.762Z,83.98
2019-05-12T11:51:34.083Z,83.77
2019-05-12T11:52:33.397Z,82.94
2019-05-12T11:53:34.875Z,82.90
2019-05-12T11:54:33.522Z,76.23
2019-05-12T11:55:34.818Z,82.28
2019-05-12T11:56:33.654Z,83.63
2019-05-12T11:57:34.093Z,83.15
2019-05-12T11:58:33.490Z,84.15
2019-05-12T11:59:34.141Z,85.87
2019-05-12T12:00:33.618Z,86.08
2019-05-12T12:01:34.549Z,86.08
2019-05-12T12:02:34.259Z,82.34
2019-05-12T12:03:33.657Z,83.07
2019-05-12T12:04:34.049Z,81.62
2019-05-12T12:05:33.824Z,79.85
2019-05-12T12:06:33.155Z,82.97
2019-05-12T12:07:33.262Z,81.76
2019-05-12T12:08:36.986Z,81.45
2019-05-12T12:09:32.565Z,84.15
2019-05-12T12:10:35.406Z,83.32
2019-05-12T12:11:34.241Z,83.22
2019-05-12T12:12:34.488Z,85.14
2019-05-12T12:13:33.643Z,84.42
2019-05-12T12:14:34.493Z,83.90
2019-05-12T12:15:34.472Z,85.04
2019-05-12T12:16:34.093Z,83.38
2019-05-12T12:17:35.508Z,83.17
2019-05-12T12:18:33.805Z,84.42
2019-05-12T12:19:37.809Z,83.07
2019-05-12T12:20:33.892Z,83.38
2019-05-12T12:21:34.948Z,84.94
2019-05-12T12:22:33.957Z,84.48
2019-05-12T12:23:33.468Z,82.41
2019-05-12T12:24:32.416Z,79.10
2019-05-12T12:25:34.232Z,80.09
2019-05-12T12:26:34.903Z,78.68
2019-05-12T12:27:32.364Z,81.27
2019-05-12T12:28:34.311Z,81.89
2019-05-12T12:29:34.427Z,81.48
2019-05-12T12:30:33.888Z,79.75
2019-05-12T12:31:35.536Z,81.30
2019-05-12T12:32:33.901Z,81.82
2019-05-12T12:33:38.681Z,81.66
2019-05-12T12:34:33.284Z,82.49
2019-05-12T12:35:34.484Z,82.70
2019-05-12T12:36:34.174Z,80.87
2019-05-12T12:37:33.150Z,80.87
2019-05-12T12:38:33.459Z,82.07
2019-05-12T12:39:32.230Z,84.05
2019-05-12T12:40:32.231Z,83.84
2019-05-12T12:41:34.054Z,83.69
2019-05-12T12:42:36.906Z,82.76
2019-05-12T12:43:33.226Z,82.14
2019-05-12T12:44:34.089Z,81.66
2019-05-12T12:45:36.882Z,84.11
2019-05-12T12:46:33.812Z,81.87
2019-05-12T12:47:38.045Z,82.01
2019-05-12T12:48:33.425Z,82.94
2019-05-12T12:49:33.969Z,83.98
2019-05-12T12:50:34.015Z,84.70
2019-05-12T12:51:34.109Z,84.29
2019-05-12T12:52:33.609Z,84.29